createdAt,value
2022-11-08T00:01:44.125Z,9.71
2022-11-08T00:04:17.132Z,9.67
2022-11-08T00:07:03.919Z,9.60
2022-11-08T00:09:50.369Z,9.64
2022-11-08T00:12:36.473Z,9.69
2022-11-08T00:15:07.073Z,9.59
2022-11-08T00:17:36.235Z,9.65
2022-11-08T00:20:07.544Z,9.66
2022-11-08T00:22:36.414Z,9.65
2022-11-08T00:25:05.501Z,9.61
2022-11-08T00:27:34.024Z,9.59
2022-11-08T00:30:02.511Z,9.56
2022-11-08T00:32:30.954Z,9.60
2022-11-08T00:34:59.489Z,9.65
2022-11-08T00:37:29.407Z,9.62
2022-11-08T00:39:57.871Z,9.59
2022-11-08T00:42:27.317Z,9.64
2022-11-08T00:44:56.035Z,9.65
2022-11-08T00:47:25.083Z,9.66
2022-11-08T00:49:53.791Z,9.67
2022-11-08T00:52:22.786Z,9.67
2022-11-08T00:54:55.385Z,9.65
2022-11-08T00:57:35.936Z,9.68
2022-11-08T01:00:15.043Z,9.67
2022-11-08T01:02:43.495Z,9.68
2022-11-08T01:05:11.955Z,9.64
2022-11-08T01:07:40.544Z,9.61
2022-11-08T01:10:11.516Z,9.59
2022-11-08T01:12:40.033Z,9.61
2022-11-08T01:15:09.506Z,9.64
2022-11-08T01:17:38.911Z,9.65
2022-11-08T01:20:09.510Z,9.66
2022-11-08T01:22:37.990Z,9.65
2022-11-08T01:25:07.215Z,9.66
2022-11-08T01:27:37.158Z,9.65
2022-11-08T01:30:07.670Z,9.68
2022-11-08T01:32:36.178Z,9.71
2022-11-08T01:35:04.945Z,9.74
2022-11-08T01:37:33.832Z,9.74
2022-11-08T01:40:03.575Z,9.77
2022-11-08T01:42:34.127Z,9.78
2022-11-08T01:45:08.793Z,9.79
2022-11-08T01:47:37.996Z,9.79
2022-11-08T01:50:12.587Z,9.77
2022-11-08T01:52:46.863Z,9.78
2022-11-08T01:55:22.420Z,9.76
2022-11-08T01:57:57.351Z,9.76
2022-11-08T02:00:27.679Z,9.76
2022-11-08T02:03:00.463Z,9.78
2022-11-08T02:05:31.792Z,9.78
2022-11-08T02:08:08.819Z,9.77
2022-11-08T02:10:40.217Z,9.73
2022-11-08T02:13:15.067Z,9.73
2022-11-08T02:15:45.946Z,9.72
2022-11-08T02:18:17.706Z,9.72
2022-11-08T02:21:02.560Z,9.73
2022-11-08T02:23:46.453Z,9.73
2022-11-08T02:26:17.598Z,9.73
2022-11-08T02:28:50.357Z,9.74
2022-11-08T02:31:20.649Z,9.73
2022-11-08T02:33:50.307Z,9.72
2022-11-08T02:36:23.740Z,9.72
2022-11-08T02:38:59.087Z,9.74
2022-11-08T02:41:28.065Z,9.75
2022-11-08T02:43:58.219Z,9.76
2022-11-08T02:46:27.390Z,9.76
2022-11-08T02:48:57.029Z,9.75
2022-11-08T02:51:25.582Z,9.76
2022-11-08T02:53:55.493Z,9.76
2022-11-08T02:56:24.325Z,9.77
2022-11-08T02:58:52.978Z,9.78
2022-11-08T03:01:22.117Z,9.80
2022-11-08T03:03:51.292Z,9.81
2022-11-08T03:06:19.812Z,9.78
2022-11-08T03:08:48.283Z,9.77
2022-11-08T03:11:18.662Z,9.77
2022-11-08T03:13:47.278Z,9.78
2022-11-08T03:16:15.975Z,9.77
2022-11-08T03:18:45.316Z,9.77
2022-11-08T03:21:13.860Z,9.74
2022-11-08T03:23:42.473Z,9.73
2022-11-08T03:26:11.914Z,9.71
2022-11-08T03:28:42.052Z,9.71
2022-11-08T03:31:10.697Z,9.70
2022-11-08T03:33:39.563Z,9.68
2022-11-08T03:36:10.159Z,9.69
2022-11-08T03:38:38.831Z,9.71
2022-11-08T03:41:07.629Z,9.72
2022-11-08T03:43:36.576Z,9.72
2022-11-08T03:46:06.816Z,9.74
2022-11-08T03:48:36.375Z,9.74
2022-11-08T03:51:05.192Z,9.74
2022-11-08T03:53:34.349Z,9.76
2022-11-08T03:56:03.169Z,9.77
2022-11-08T03:58:32.286Z,9.78
2022-11-08T04:01:07.173Z,9.77
2022-11-08T04:03:35.816Z,9.76
2022-11-08T04:06:05.510Z,9.75
2022-11-08T04:08:34.291Z,9.73
2022-11-08T04:11:23.569Z,9.72
2022-11-08T04:14:09.761Z,9.70
2022-11-08T04:16:39.740Z,9.70
2022-11-08T04:19:31.123Z,9.71
2022-11-08T04:22:00.133Z,9.68
2022-11-08T04:24:29.035Z,9.69
2022-11-08T04:26:57.998Z,9.70
2022-11-08T04:29:27.049Z,9.68
2022-11-08T04:31:56.973Z,9.68
2022-11-08T04:34:25.535Z,9.68
2022-11-08T04:36:54.493Z,9.68
2022-11-08T04:39:22.964Z,9.64
2022-11-08T04:41:52.220Z,9.55
2022-11-08T04:44:21.288Z,9.48
2022-11-08T04:46:49.706Z,9.42
2022-11-08T04:49:20.770Z,9.38
2022-11-08T04:51:49.280Z,9.36
2022-11-08T04:54:18.225Z,9.36
2022-11-08T04:56:46.824Z,9.38
2022-11-08T04:59:16.512Z,9.36
2022-11-08T05:01:46.572Z,9.35
2022-11-08T05:04:15.101Z,9.34
2022-11-08T05:06:45.001Z,9.29
2022-11-08T05:09:14.132Z,9.27
2022-11-08T05:11:43.809Z,9.25
2022-11-08T05:14:12.378Z,9.21
2022-11-08T05:16:41.555Z,9.20
2022-11-08T05:19:13.236Z,9.19
2022-11-08T05:22:01.687Z,9.15
2022-11-08T05:24:31.169Z,9.18
2022-11-08T05:26:59.643Z,9.18
2022-11-08T05:29:28.156Z,9.18
2022-11-08T05:31:56.699Z,9.17
2022-11-08T05:34:25.880Z,9.17
2022-11-08T05:36:55.753Z,9.19
2022-11-08T05:39:28.284Z,9.16
2022-11-08T05:42:01.569Z,9.13
2022-11-08T05:44:30.190Z,9.14
2022-11-08T05:46:58.699Z,9.09
2022-11-08T05:49:27.317Z,9.05
2022-11-08T05:51:57.862Z,9.06
2022-11-08T05:54:26.484Z,9.05
2022-11-08T05:56:55.075Z,9.04
2022-11-08T05:59:24.477Z,8.99
2022-11-08T06:01:53.490Z,8.91
2022-11-08T06:04:22.305Z,8.86
2022-11-08T06:06:51.960Z,8.81
2022-11-08T06:09:23.155Z,8.78
2022-11-08T06:11:52.096Z,8.74
2022-11-08T06:14:21.312Z,8.64
2022-11-08T06:16:49.981Z,8.54
2022-11-08T06:19:19.177Z,8.56
2022-11-08T06:21:47.814Z,8.54
2022-11-08T06:24:17.768Z,8.54
2022-11-08T06:26:48.287Z,8.49
2022-11-08T06:29:18.878Z,8.45
2022-11-08T06:31:47.485Z,8.46
2022-11-08T06:34:16.250Z,8.46
2022-11-08T06:36:45.040Z,8.43
2022-11-08T06:39:13.844Z,8.42
2022-11-08T06:41:42.519Z,8.44
2022-11-08T06:44:12.636Z,8.39
2022-11-08T06:46:41.171Z,8.40
2022-11-08T06:49:09.798Z,8.33
2022-11-08T06:51:38.737Z,8.32
2022-11-08T06:54:09.814Z,8.35
2022-11-08T06:56:39.912Z,8.29
2022-11-08T06:59:08.687Z,8.31
2022-11-08T07:01:44.574Z,8.24
2022-11-08T07:04:16.026Z,8.19
2022-11-08T07:06:44.647Z,8.17
2022-11-08T07:09:14.353Z,8.15
2022-11-08T07:11:43.087Z,8.14
2022-11-08T07:14:11.666Z,8.05
2022-11-08T07:16:42.241Z,8.01
2022-11-08T07:19:10.958Z,8.02
2022-11-08T07:21:39.570Z,7.97
2022-11-08T07:24:09.013Z,7.94
2022-11-08T07:26:37.887Z,7.89
2022-11-08T07:29:06.727Z,7.94
2022-11-08T07:31:35.430Z,7.89
2022-11-08T07:34:05.547Z,7.85
2022-11-08T07:36:34.205Z,7.81
2022-11-08T07:39:06.625Z,7.83
2022-11-08T07:41:37.222Z,7.88
2022-11-08T07:44:06.591Z,7.82
2022-11-08T07:46:36.275Z,7.82
2022-11-08T07:49:06.794Z,7.88
2022-11-08T07:51:35.683Z,7.93
2022-11-08T07:54:04.486Z,8.01
2022-11-08T07:56:33.337Z,7.98
2022-11-08T07:59:02.440Z,8.02
2022-11-08T08:01:31.406Z,8.09
2022-11-08T08:04:00.447Z,8.17
2022-11-08T08:06:30.540Z,8.16
2022-11-08T08:08:59.405Z,8.11
2022-11-08T08:11:32.515Z,8.17
2022-11-08T08:14:02.952Z,8.26
2022-11-08T08:16:31.742Z,8.21
2022-11-08T08:19:00.706Z,8.16
2022-11-08T08:21:31.854Z,8.18
2022-11-08T08:24:01.146Z,8.13
2022-11-08T08:26:30.348Z,8.16
2022-11-08T08:28:58.992Z,8.21
2022-11-08T08:31:27.769Z,8.28
2022-11-08T08:33:57.363Z,8.19
2022-11-08T08:36:26.565Z,8.19
2022-11-08T08:38:56.749Z,8.20
2022-11-08T08:41:25.649Z,8.26
2022-11-08T08:43:55.406Z,8.30
2022-11-08T08:46:24.189Z,8.29
2022-11-08T08:48:53.649Z,8.26
2022-11-08T08:51:22.410Z,8.26
2022-11-08T08:53:51.013Z,8.32
2022-11-08T08:56:21.078Z,8.33
2022-11-08T09:01:39.828Z,8.50
2022-11-08T09:04:08.787Z,8.57
2022-11-08T09:06:37.498Z,8.64
2022-11-08T09:09:06.604Z,8.68
2022-11-08T09:11:37.311Z,8.74
2022-11-08T09:14:06.054Z,8.77
2022-11-08T09:16:34.540Z,8.81
2022-11-08T09:19:03.227Z,8.83
2022-11-08T09:21:31.787Z,8.82
2022-11-08T09:24:01.183Z,8.83
2022-11-08T09:26:29.783Z,8.87
2022-11-08T09:29:01.864Z,8.91
2022-11-08T09:31:31.016Z,8.94
2022-11-08T09:33:59.647Z,8.98
2022-11-08T09:36:28.742Z,9.03
2022-11-08T09:38:57.274Z,9.12
2022-11-08T09:42:00.322Z,9.18
2022-11-08T09:45:09.488Z,9.23
2022-11-08T09:47:42.494Z,9.29
2022-11-08T09:50:22.229Z,9.34
2022-11-08T09:52:59.414Z,9.40
2022-11-08T09:55:37.220Z,9.46
2022-11-08T09:58:27.840Z,9.54
2022-11-08T10:00:58.285Z,9.65
2022-11-08T10:03:28.022Z,9.74
2022-11-08T10:06:34.538Z,9.85
2022-11-08T10:09:24.343Z,9.94
2022-11-08T10:12:16.905Z,10.04
2022-11-08T10:15:16.009Z,10.15
2022-11-08T10:18:50.862Z,10.27
2022-11-08T10:21:43.274Z,10.36
2022-11-08T10:24:22.720Z,10.43
2022-11-08T10:26:53.338Z,10.51
2022-11-08T10:29:27.444Z,10.57
2022-11-08T10:32:04.755Z,10.65
2022-11-08T10:34:44.477Z,10.72
2022-11-08T10:37:16.749Z,10.79
2022-11-08T10:39:56.434Z,10.86
2022-11-08T10:42:39.427Z,10.94
2022-11-08T10:45:11.077Z,11.00
2022-11-08T10:47:41.852Z,11.07
2022-11-08T10:50:20.156Z,11.15
2022-11-08T10:53:00.887Z,11.22
2022-11-08T10:55:33.610Z,11.31
2022-11-08T10:58:02.426Z,11.39
2022-11-08T11:00:33.880Z,11.44
2022-11-08T11:03:28.857Z,11.50
2022-11-08T11:06:03.426Z,11.55
2022-11-08T11:08:32.848Z,11.59
2022-11-08T11:11:26.927Z,11.65
2022-11-08T11:14:16.506Z,11.72
2022-11-08T11:16:59.055Z,11.78
2022-11-08T11:19:30.779Z,11.83
2022-11-08T11:22:06.215Z,11.89
2022-11-08T11:24:37.753Z,11.94
2022-11-08T11:27:09.828Z,11.99
2022-11-08T11:29:39.913Z,12.05
2022-11-08T11:32:33.973Z,12.09
2022-11-08T11:35:05.650Z,12.13
2022-11-08T11:37:44.034Z,12.17
2022-11-08T11:40:25.731Z,12.20
2022-11-08T11:43:07.535Z,12.24
2022-11-08T11:45:47.796Z,12.29
2022-11-08T11:48:23.406Z,12.31
2022-11-08T11:50:52.292Z,12.35
2022-11-08T11:53:27.483Z,12.37
2022-11-08T11:56:41.041Z,12.43
2022-11-08T11:59:58.177Z,12.51
2022-11-08T12:03:11.672Z,12.55
2022-11-08T12:06:06.177Z,12.58
2022-11-08T12:08:55.430Z,12.61
2022-11-08T12:11:57.017Z,12.65
2022-11-08T12:14:50.176Z,12.68
2022-11-08T12:17:47.079Z,12.73
2022-11-08T12:20:54.678Z,12.81
2022-11-08T12:24:00.456Z,12.83
2022-11-08T12:26:41.614Z,12.86
2022-11-08T12:29:25.962Z,12.91
2022-11-08T12:32:15.015Z,12.94
2022-11-08T12:35:01.761Z,13.00
2022-11-08T12:37:50.120Z,13.05
2022-11-08T12:40:30.734Z,13.13
2022-11-08T12:43:25.471Z,13.17
2022-11-08T12:46:10.136Z,13.28
2022-11-08T12:49:07.122Z,13.31
2022-11-08T12:51:58.164Z,13.38
2022-11-08T12:54:34.689Z,13.48
2022-11-08T12:57:12.736Z,13.53
2022-11-08T12:59:46.428Z,13.58
2022-11-08T13:02:23.084Z,13.61
2022-11-08T13:05:00.969Z,13.63
2022-11-08T13:07:45.091Z,13.65
2022-11-08T13:10:27.827Z,13.67
2022-11-08T13:13:21.607Z,13.72
2022-11-08T13:16:13.350Z,13.74
2022-11-08T13:18:51.451Z,13.78
2022-11-08T13:21:41.053Z,13.83
2022-11-08T13:24:45.669Z,13.87
2022-11-08T13:27:42.220Z,13.93
2022-11-08T13:30:39.843Z,13.98
2022-11-08T13:33:26.834Z,14.03
2022-11-08T13:36:17.377Z,14.09
2022-11-08T13:38:59.491Z,14.13
2022-11-08T13:41:28.194Z,14.18
2022-11-08T13:43:58.094Z,14.23
2022-11-08T13:46:50.246Z,14.29
2022-11-08T13:49:24.333Z,14.35
2022-11-08T13:52:45.545Z,14.41
2022-11-08T13:55:49.282Z,14.46
2022-11-08T13:58:38.241Z,14.49
2022-11-08T14:01:09.219Z,14.52
2022-11-08T14:03:59.913Z,14.53
2022-11-08T14:06:38.437Z,14.55
2022-11-08T14:09:29.167Z,14.57
2022-11-08T14:12:08.693Z,14.57
2022-11-08T14:14:48.615Z,14.60
2022-11-08T14:17:40.798Z,14.60
2022-11-08T14:20:41.669Z,14.59
2022-11-08T14:23:25.758Z,14.59
2022-11-08T14:25:57.937Z,14.58
2022-11-08T14:28:29.973Z,14.57
2022-11-08T14:31:00.708Z,14.56
2022-11-08T14:33:31.318Z,14.56
2022-11-08T14:36:05.033Z,14.53
2022-11-08T14:38:38.728Z,14.51
2022-11-08T14:41:08.636Z,14.46
2022-11-08T14:43:46.372Z,14.45
2022-11-08T14:46:23.209Z,14.39
2022-11-08T14:48:54.727Z,14.35
2022-11-08T14:51:25.742Z,14.30
2022-11-08T14:53:56.690Z,14.28
2022-11-08T14:56:28.677Z,14.24
2022-11-08T14:58:57.923Z,14.22
2022-11-08T15:01:28.479Z,14.19
2022-11-08T15:04:00.118Z,14.18
2022-11-08T15:06:36.456Z,14.17
2022-11-08T15:09:07.108Z,14.13
2022-11-08T15:11:39.972Z,14.10
2022-11-08T15:14:12.360Z,14.03
2022-11-08T15:16:44.029Z,14.01
2022-11-08T15:19:41.254Z,14.00
2022-11-08T15:22:30.494Z,13.93
2022-11-08T15:25:04.127Z,13.88
2022-11-08T15:27:32.834Z,13.81
2022-11-08T15:30:04.980Z,13.75
2022-11-08T15:32:39.335Z,13.71
2022-11-08T15:35:21.043Z,13.59
2022-11-08T15:37:52.888Z,13.58
2022-11-08T15:40:28.203Z,13.52
2022-11-08T15:42:56.807Z,13.49
2022-11-08T15:45:29.120Z,13.45
2022-11-08T15:48:14.333Z,13.39
2022-11-08T15:50:42.936Z,13.34
2022-11-08T15:53:13.209Z,13.33
2022-11-08T15:55:48.175Z,13.33
2022-11-08T15:58:19.883Z,13.32
2022-11-08T16:00:50.509Z,13.29
2022-11-08T16:03:19.297Z,13.26
2022-11-08T16:05:47.970Z,13.27
2022-11-08T16:08:20.467Z,13.25
2022-11-08T16:10:52.850Z,13.22
2022-11-08T16:13:26.249Z,13.18
2022-11-08T16:15:55.109Z,13.15
2022-11-08T16:18:23.873Z,13.10
2022-11-08T16:20:52.547Z,13.07
2022-11-08T16:23:22.479Z,13.02
2022-11-08T16:25:55.981Z,13.02
2022-11-08T16:28:33.915Z,13.00
2022-11-08T16:31:03.462Z,12.91
2022-11-08T16:33:34.986Z,12.87
2022-11-08T16:36:13.570Z,12.84
2022-11-08T16:38:47.024Z,12.81
2022-11-08T16:41:16.114Z,12.79
2022-11-08T16:43:45.835Z,12.74
2022-11-08T16:46:15.421Z,12.74
2022-11-08T16:48:49.552Z,12.72
2022-11-08T16:51:23.650Z,12.71
2022-11-08T16:53:54.580Z,12.70
2022-11-08T16:56:25.634Z,12.68
2022-11-08T16:58:54.307Z,12.69
2022-11-08T17:01:34.461Z,12.63
2022-11-08T17:04:03.129Z,12.63
2022-11-08T17:06:31.858Z,12.59
2022-11-08T17:09:01.801Z,12.60
2022-11-08T17:11:30.905Z,12.60
2022-11-08T17:13:59.544Z,12.59
2022-11-08T17:16:28.799Z,12.59
2022-11-08T17:18:57.933Z,12.61
2022-11-08T17:21:44.160Z,12.59
2022-11-08T17:24:21.294Z,12.58
2022-11-08T17:26:51.276Z,12.55
2022-11-08T17:29:20.169Z,12.52
2022-11-08T17:31:48.803Z,12.51
2022-11-08T17:34:17.809Z,12.54
2022-11-08T17:36:47.195Z,12.53
2022-11-08T17:39:17.234Z,12.49
2022-11-08T17:41:45.774Z,12.48
2022-11-08T17:44:14.673Z,12.48
2022-11-08T17:46:43.778Z,12.46
2022-11-08T17:49:12.231Z,12.44
2022-11-08T17:51:41.126Z,12.43
2022-11-08T17:54:10.076Z,12.40
2022-11-08T17:56:40.210Z,12.40
2022-11-08T17:59:08.690Z,12.35
2022-11-08T18:01:37.434Z,12.31
2022-11-08T18:04:06.566Z,12.33
2022-11-08T18:06:35.082Z,12.34
2022-11-08T18:09:03.650Z,12.34
2022-11-08T18:11:32.489Z,12.32
2022-11-08T18:14:02.564Z,12.32
2022-11-08T18:16:31.964Z,12.30
2022-11-08T18:19:00.408Z,12.29
2022-11-08T18:21:30.205Z,12.27
2022-11-08T18:24:00.182Z,12.28
2022-11-08T18:26:29.726Z,12.27
2022-11-08T18:28:58.862Z,12.23
2022-11-08T18:31:30.752Z,12.20
2022-11-08T18:33:59.674Z,12.18
2022-11-08T18:36:33.019Z,12.17
2022-11-08T18:39:02.725Z,12.11
2022-11-08T18:41:34.035Z,12.09
2022-11-08T18:44:06.102Z,12.02
2022-11-08T18:46:41.828Z,11.93
2022-11-08T18:49:15.958Z,11.92
2022-11-08T18:51:44.479Z,11.88
2022-11-08T18:54:13.308Z,11.88
2022-11-08T18:56:42.067Z,11.85
2022-11-08T18:59:10.845Z,11.77
2022-11-08T19:01:40.949Z,11.73
2022-11-08T19:04:09.614Z,11.66
2022-11-08T19:06:38.315Z,11.66
2022-11-08T19:09:07.422Z,11.68
2022-11-08T19:11:36.648Z,11.68
2022-11-08T19:14:06.556Z,11.69
2022-11-08T19:16:35.458Z,11.68
2022-11-08T19:19:06.497Z,11.66
2022-11-08T19:21:35.654Z,11.66
2022-11-08T19:24:10.833Z,11.63
2022-11-08T19:26:39.849Z,11.61
2022-11-08T19:29:10.611Z,11.60
2022-11-08T19:31:39.184Z,11.58
2022-11-08T19:34:09.275Z,11.51
2022-11-08T19:36:43.391Z,11.44
2022-11-08T19:39:13.337Z,11.45
2022-11-08T19:41:42.203Z,11.44
2022-11-08T19:44:12.608Z,11.43
2022-11-08T19:46:41.858Z,11.43
2022-11-08T19:49:12.599Z,11.45
2022-11-08T19:51:41.453Z,11.39
2022-11-08T19:54:14.759Z,11.33
2022-11-08T19:57:04.105Z,11.37
2022-11-08T19:59:31.963Z,11.34
2022-11-08T20:02:00.857Z,11.32
2022-11-08T20:04:30.969Z,11.31
2022-11-08T20:06:59.620Z,11.34
2022-11-08T20:09:30.710Z,11.38
2022-11-08T20:11:59.733Z,11.39
2022-11-08T20:14:28.399Z,11.40
2022-11-08T20:16:57.295Z,11.40
2022-11-08T20:19:27.347Z,11.42
2022-11-08T20:21:58.997Z,11.44
2022-11-08T20:24:27.648Z,11.43
2022-11-08T20:26:57.031Z,11.42
2022-11-08T20:29:25.877Z,11.42
2022-11-08T20:31:56.609Z,11.44
2022-11-08T20:34:25.960Z,11.45
2022-11-08T20:36:54.400Z,11.46
2022-11-08T20:39:24.322Z,11.45
2022-11-08T20:41:52.908Z,11.48
2022-11-08T20:44:22.759Z,11.50
2022-11-08T20:46:51.442Z,11.49
2022-11-08T20:49:20.410Z,11.51
2022-11-08T20:51:49.094Z,11.52
2022-11-08T20:54:17.738Z,11.51
2022-11-08T20:56:47.589Z,11.53
2022-11-08T20:59:16.216Z,11.54
2022-11-08T21:01:44.911Z,11.56
2022-11-08T21:04:13.719Z,11.56
2022-11-08T21:06:42.457Z,11.56
2022-11-08T21:12:02.214Z,11.52
2022-11-08T21:14:30.673Z,11.55
2022-11-08T21:17:20.908Z,11.55
2022-11-08T21:19:49.364Z,11.54
2022-11-08T21:22:17.878Z,11.53
2022-11-08T21:24:49.072Z,11.50
2022-11-08T21:27:19.014Z,11.48
2022-11-08T21:29:47.567Z,11.48
2022-11-08T21:32:16.111Z,11.47
2022-11-08T21:34:46.498Z,11.46
2022-11-08T21:37:15.794Z,11.45
2022-11-08T21:39:44.762Z,11.46
2022-11-08T21:42:14.165Z,11.45
2022-11-08T21:44:44.283Z,11.40
2022-11-08T21:47:12.712Z,11.39
2022-11-08T21:49:42.051Z,11.38
2022-11-08T21:52:11.032Z,11.38
2022-11-08T21:54:40.615Z,11.36
2022-11-08T21:57:09.186Z,11.34
2022-11-08T21:59:37.874Z,11.35
2022-11-08T22:02:08.964Z,11.37
2022-11-08T22:04:37.649Z,11.37
2022-11-08T22:07:06.825Z,11.39
2022-11-08T22:09:35.735Z,11.39
2022-11-08T22:12:04.653Z,11.41
2022-11-08T22:14:33.368Z,11.42
2022-11-08T22:17:01.975Z,11.39
2022-11-08T22:19:31.988Z,11.42
2022-11-08T22:22:00.752Z,11.44
2022-11-08T22:24:29.390Z,11.45
2022-11-08T22:26:57.927Z,11.48
2022-11-08T22:29:26.675Z,11.48
2022-11-08T22:31:56.162Z,11.48
2022-11-08T22:34:25.638Z,11.50
2022-11-08T22:36:56.244Z,11.50
2022-11-08T22:39:25.454Z,11.49
2022-11-08T22:41:56.539Z,11.53
2022-11-08T22:44:25.205Z,11.53
2022-11-08T22:46:54.403Z,11.54
2022-11-08T22:49:23.342Z,11.53
2022-11-08T22:51:52.140Z,11.56
2022-11-08T22:54:22.049Z,11.54
2022-11-08T22:56:50.795Z,11.57
2022-11-08T22:59:19.471Z,11.58
2022-11-08T23:01:48.104Z,11.61
2022-11-08T23:04:16.887Z,11.61
2022-11-08T23:06:45.819Z,11.63
2022-11-08T23:09:14.452Z,11.63
2022-11-08T23:12:01.714Z,11.63
2022-11-08T23:14:47.680Z,11.64
2022-11-08T23:17:16.157Z,11.65
2022-11-08T23:20:02.832Z,11.67
2022-11-08T23:22:48.910Z,11.68
2022-11-08T23:25:17.780Z,11.68
2022-11-08T23:28:05.458Z,11.70
2022-11-08T23:30:51.492Z,11.70
2022-11-08T23:33:20.241Z,11.71
2022-11-08T23:36:02.784Z,11.72
2022-11-08T23:38:31.322Z,11.73
2022-11-08T23:41:20.160Z,11.74
2022-11-08T23:44:07.524Z,11.73
2022-11-08T23:46:36.674Z,11.74
2022-11-08T23:49:06.906Z,11.77
2022-11-08T23:51:35.529Z,11.78
2022-11-08T23:54:04.033Z,11.80
2022-11-08T23:56:32.712Z,11.82
2022-11-08T23:59:03.868Z,11.83
